Time;durP1;ratioP1;P1;durP2;ratioP2;P2;SDS_P1;SDS_P2;PMS_P1;PMS_P2;Temp;Humidity;BMP_temperature;BMP_pressure;BME280_temperature;BME280_humidity;BME280_pressure;Samples;Min_cycle;Max_cycle;Signal;HPM_P1;HPM_P2
2021/04/05 00:00:37;;;;;;;;;;;22.70;30.50;;;;;;1553529;74;786;-64
2021/04/05 00:02:39;;;;;;;;;;;22.70;30.50;;;;;;1553874;74;758;-64
2021/04/05 00:04:40;;;;;;;;;;;22.60;30.30;;;;;;1557617;74;729;-65
2021/04/05 00:06:42;;;;;;;;;;;22.60;30.40;;;;;;1558934;74;1247;-65
2021/04/05 00:08:44;;;;;;;;;;;22.60;30.40;;;;;;1557433;74;786;-65
2021/04/05 00:10:48;;;;;;;;;;;22.60;30.40;;;;;;1559800;74;678;-65
2021/04/05 00:12:52;;;;;;;;;;;22.70;30.30;;;;;;1559432;74;750;-64
2021/04/05 00:14:54;;;;;;;;;;;22.70;30.40;;;;;;1553849;74;1951;-65
2021/04/05 00:16:55;;;;;;;;;;;22.60;30.40;;;;;;1561914;74;1223;-64
2021/04/05 00:18:57;;;;;;;;;;;22.60;30.60;;;;;;1569170;74;642;-64
2021/04/05 00:21:01;;;;;;;;;;;22.60;30.50;;;;;;1568594;74;741;-64
2021/04/05 00:23:03;;;;;;;;;;;22.60;30.50;;;;;;1564021;74;1001;-65
2021/04/05 00:25:05;;;;;;;;;;;22.60;30.60;;;;;;1566026;74;762;-64
2021/04/05 00:27:07;;;;;;;;;;;22.60;30.50;;;;;;1553866;74;1187;-63
2021/04/05 00:29:09;;;;;;;;;;;22.60;30.60;;;;;;1554798;74;650;-65
2021/04/05 00:31:11;;;;;;;;;;;22.70;30.60;;;;;;1553177;74;642;-65
2021/04/05 00:33:13;;;;;;;;;;;22.70;30.60;;;;;;1558358;74;1930;-65
2021/04/05 00:35:15;;;;;;;;;;;22.70;30.60;;;;;;1568476;74;805;-67
2021/04/05 00:37:17;;;;;;;;;;;22.60;30.50;;;;;;1558932;74;1163;-66
2021/04/05 00:39:19;;;;;;;;;;;22.70;30.50;;;;;;1553824;74;789;-64
2021/04/05 00:41:21;;;;;;;;;;;22.70;30.60;;;;;;1559388;74;774;-64
2021/04/05 00:43:23;;;;;;;;;;;22.60;30.50;;;;;;1554558;74;780;-64
2021/04/05 00:45:25;;;;;;;;;;;22.60;30.50;;;;;;1554210;74;807;-64
2021/04/05 00:47:27;;;;;;;;;;;22.70;30.50;;;;;;1557637;74;1159;-64
2021/04/05 00:49:28;;;;;;;;;;;22.70;30.40;;;;;;1554903;74;762;-64
2021/04/05 00:51:30;;;;;;;;;;;22.70;30.50;;;;;;1560216;74;782;-66
2021/04/05 00:53:36;;;;;;;;;;;22.60;30.40;;;;;;1554882;74;1943;-66
2021/04/05 00:55:38;;;;;;;;;;;22.70;30.50;;;;;;1557439;74;829;-64
2021/04/05 00:57:40;;;;;;;;;;;22.70;30.50;;;;;;1565311;74;1156;-65
2021/04/05 00:59:42;;;;;;;;;;;22.70;30.60;;;;;;1549349;74;770;-64
2021/04/05 01:01:44;;;;;;;;;;;22.60;30.50;;;;;;1562309;74;785;-64
2021/04/05 01:03:46;;;;;;;;;;;22.70;30.60;;;;;;1556804;74;761;-65
2021/04/05 01:05:49;;;;;;;;;;;22.60;30.50;;;;;;1561910;74;756;-65
2021/04/05 01:07:51;;;;;;;;;;;22.70;30.60;;;;;;1554708;74;1167;-66
2021/04/05 01:09:53;;;;;;;;;;;22.60;30.50;;;;;;1554210;74;757;-68
2021/04/05 01:11:55;;;;;;;;;;;22.60;30.50;;;;;;1551131;74;727;-65
2021/04/05 01:13:57;;;;;;;;;;;22.60;30.50;;;;;;1555908;74;1943;-65
2021/04/05 01:15:58;;;;;;;;;;;22.60;30.50;;;;;;1557094;74;807;-65
2021/04/05 01:18:00;;;;;;;;;;;22.60;30.50;;;;;;1553999;74;1289;-65
2021/04/05 01:20:04;;;;;;;;;;;22.60;30.40;;;;;;1557056;74;733;-66
2021/04/05 01:22:06;;;;;;;;;;;22.70;30.50;;;;;;1556146;74;1709;-65
2021/04/05 01:24:08;;;;;;;;;;;22.70;30.50;;;;;;1554967;74;794;-65
2021/04/05 01:26:10;;;;;;;;;;;22.70;30.50;;;;;;1562253;74;1174;-65
2021/04/05 01:28:12;;;;;;;;;;;22.70;30.40;;;;;;1566584;74;775;-66
2021/04/05 01:30:32;;;;;;;;;;;22.60;30.40;;;;;;1560836;74;818;-67
2021/04/05 01:32:21;;;;;;;;;;;22.70;30.50;;;;;;1560265;74;1381;-65
2021/04/05 01:34:23;;;;;;;;;;;22.70;30.50;;;;;;1566492;74;1934;-65
2021/04/05 01:36:25;;;;;;;;;;;22.60;30.30;;;;;;1566552;74;1103;-65
2021/04/05 01:38:31;;;;;;;;;;;22.60;30.30;;;;;;1566109;74;773;-65
2021/04/05 01:40:34;;;;;;;;;;;22.80;30.40;;;;;;1565674;74;775;-65
2021/04/05 01:42:36;;;;;;;;;;;22.70;30.40;;;;;;1565963;74;771;-64
2021/04/05 01:44:39;;;;;;;;;;;22.80;30.40;;;;;;1564421;74;782;-61
2021/04/05 01:46:41;;;;;;;;;;;22.80;30.40;;;;;;1567124;74;1156;-64
2021/04/05 01:48:43;;;;;;;;;;;22.70;30.50;;;;;;1562243;74;890;-64
2021/04/05 01:50:44;;;;;;;;;;;22.70;30.40;;;;;;1566971;74;759;-64
2021/04/05 01:52:46;;;;;;;;;;;22.70;30.50;;;;;;1568203;74;761;-64
2021/04/05 01:54:48;;;;;;;;;;;22.60;30.40;;;;;;1567432;74;1934;-67
2021/04/05 01:56:50;;;;;;;;;;;22.60;30.50;;;;;;1566252;74;1119;-64
2021/04/05 01:58:53;;;;;;;;;;;22.70;30.70;;;;;;1567399;74;797;-65
2021/04/05 02:00:55;;;;;;;;;;;22.60;30.50;;;;;;1566888;74;696;-66
2021/04/05 02:02:57;;;;;;;;;;;22.60;30.50;;;;;;1563553;74;762;-67
2021/04/05 02:04:59;;;;;;;;;;;22.70;30.60;;;;;;1563779;74;761;-65
2021/04/05 02:07:00;;;;;;;;;;;22.60;30.50;;;;;;1567353;74;1193;-66
2021/04/05 02:09:04;;;;;;;;;;;22.70;30.60;;;;;;1563550;74;771;-65
2021/04/05 02:11:07;;;;;;;;;;;22.60;30.50;;;;;;1566659;74;1622;-65
2021/04/05 02:13:09;;;;;;;;;;;22.60;30.60;;;;;;1567604;74;757;-66
2021/04/05 02:15:11;;;;;;;;;;;22.60;30.60;;;;;;1569116;74;1955;-64
2021/04/05 02:17:13;;;;;;;;;;;22.60;30.60;;;;;;1567713;74;1202;-68
2021/04/05 02:19:15;;;;;;;;;;;22.60;30.50;;;;;;1569335;74;811;-69
2021/04/05 02:21:18;;;;;;;;;;;22.70;30.60;;;;;;1567684;74;733;-66
2021/04/05 02:23:20;;;;;;;;;;;22.60;30.70;;;;;;1567249;74;752;-65
2021/04/05 02:25:23;;;;;;;;;;;22.70;30.80;;;;;;1567602;74;752;-65
2021/04/05 02:27:25;;;;;;;;;;;22.60;30.70;;;;;;1568804;74;1160;-65
2021/04/05 02:29:27;;;;;;;;;;;22.60;30.70;;;;;;1567404;74;762;-65
2021/04/05 02:31:29;;;;;;;;;;;22.60;30.60;;;;;;1567947;74;771;-66
2021/04/05 02:33:31;;;;;;;;;;;22.60;30.50;;;;;;1568022;74;946;-65
2021/04/05 02:35:33;;;;;;;;;;;22.50;30.80;;;;;;1567981;74;1963;-66
2021/04/05 02:37:35;;;;;;;;;;;22.40;31.20;;;;;;1564360;74;1111;-65
2021/04/05 02:39:37;;;;;;;;;;;22.30;31.40;;;;;;1544938;76;1240;-65
2021/04/05 02:41:42;;;;;;;;;;;22.30;31.60;;;;;;1527711;76;677;-66
2021/04/05 02:43:44;;;;;;;;;;;22.30;31.80;;;;;;1523182;76;785;-64
2021/04/05 02:45:46;;;;;;;;;;;22.30;32.00;;;;;;1496580;77;810;-64
2021/04/05 02:47:49;;;;;;;;;;;22.30;32.00;;;;;;1509943;77;1130;-64
2021/04/05 02:49:50;;;;;;;;;;;22.30;32.20;;;;;;1515670;77;781;-66
2021/04/05 02:51:52;;;;;;;;;;;22.40;32.10;;;;;;1515597;77;657;-65
2021/04/05 02:53:55;;;;;;;;;;;22.30;32.30;;;;;;1509951;77;700;-65
2021/04/05 02:55:59;;;;;;;;;;;22.30;32.20;;;;;;1515133;77;2122;-68
2021/04/05 02:58:01;;;;;;;;;;;22.30;32.20;;;;;;1513083;77;1646;-69
2021/04/05 03:00:10;;;;;;;;;;;22.30;32.00;;;;;;1494194;78;1246;-66
2021/04/05 03:02:12;;;;;;;;;;;22.40;31.90;;;;;;1526724;76;695;-67
2021/04/05 03:04:13;;;;;;;;;;;22.40;31.90;;;;;;1528863;76;810;-65
2021/04/05 03:06:17;;;;;;;;;;;22.30;31.80;;;;;;1524894;76;1240;-63
2021/04/05 03:08:19;;;;;;;;;;;22.40;31.80;;;;;;1527784;76;1057;-65
2021/04/05 03:10:23;;;;;;;;;;;22.40;31.90;;;;;;1528254;76;741;-66
2021/04/05 03:12:24;;;;;;;;;;;22.40;31.80;;;;;;1526102;76;1366;-66
2021/04/05 03:14:26;;;;;;;;;;;22.40;32.10;;;;;;1526037;76;1944;-67
2021/04/05 03:16:28;;;;;;;;;;;22.40;32.30;;;;;;1526903;76;1168;-65
2021/04/05 03:18:30;;;;;;;;;;;22.50;32.50;;;;;;1516061;77;776;-65
2021/04/05 03:20:33;;;;;;;;;;;22.50;32.50;;;;;;1513575;77;758;-62
2021/04/05 03:22:35;;;;;;;;;;;22.50;32.40;;;;;;1517824;77;774;-64
2021/04/05 03:24:37;;;;;;;;;;;22.50;32.20;;;;;;1508125;77;754;-64
2021/04/05 03:26:39;;;;;;;;;;;22.50;32.20;;;;;;1499035;77;1168;-64
2021/04/05 03:28:40;;;;;;;;;;;22.50;32.20;;;;;;1510794;77;758;-64
2021/04/05 03:30:43;;;;;;;;;;;22.60;32.30;;;;;;1518492;77;756;-64
2021/04/05 03:32:45;;;;;;;;;;;22.50;32.40;;;;;;1516567;77;737;-64
2021/04/05 03:34:48;;;;;;;;;;;22.50;32.40;;;;;;1503710;77;1942;-61
2021/04/05 03:37:01;;;;;;;;;;;22.60;32.30;;;;;;1517743;77;1145;-64
2021/04/05 03:39:03;;;;;;;;;;;22.60;32.30;;;;;;1516014;77;1656;-64
2021/04/05 03:41:05;;;;;;;;;;;22.60;32.30;;;;;;1516429;77;628;-64
2021/04/05 03:43:08;;;;;;;;;;;22.60;32.30;;;;;;1516091;77;633;-63
2021/04/05 03:45:15;;;;;;;;;;;22.60;32.20;;;;;;1515990;77;746;-64
2021/04/05 03:47:18;;;;;;;;;;;22.60;32.30;;;;;;1516503;77;1171;-66
2021/04/05 03:49:27;;;;;;;;;;;22.60;32.30;;;;;;1516153;77;1837;-64
2021/04/05 03:51:40;;;;;;;;;;;22.60;32.30;;;;;;1526851;77;746;-66
2021/04/05 03:53:46;;;;;;;;;;;22.60;32.30;;;;;;1516729;77;1825;-65
2021/04/05 03:55:50;;;;;;;;;;;22.70;32.30;;;;;;1514239;77;1940;-64
2021/04/05 03:57:51;;;;;;;;;;;22.70;32.30;;;;;;1543230;74;2054;-63
2021/04/05 03:59:54;;;;;;;;;;;22.70;32.30;;;;;;1547886;75;777;-63
2021/04/05 04:01:58;;;;;;;;;;;22.70;32.10;;;;;;1548298;75;809;-63
2021/04/05 04:04:12;;;;;;;;;;;22.70;32.10;;;;;;1547367;75;1471;-63
2021/04/05 04:06:11;;;;;;;;;;;22.70;32.20;;;;;;1543028;75;1575;-63
2021/04/05 04:10:21;;;;;;;;;;;22.70;32.30;;;;;;1544942;75;704;-62
2021/04/05 04:12:22;;;;;;;;;;;22.80;32.30;;;;;;1547078;75;765;-62
2021/04/05 04:14:25;;;;;;;;;;;22.80;32.40;;;;;;1545738;75;767;-64
2021/04/05 04:16:27;;;;;;;;;;;22.80;32.40;;;;;;1546637;75;1938;-64
2021/04/05 04:18:29;;;;;;;;;;;22.80;32.30;;;;;;1539216;75;917;-63
2021/04/05 04:20:31;;;;;;;;;;;22.70;32.30;;;;;;1548423;76;623;-65
2021/04/05 04:22:33;;;;;;;;;;;22.80;32.30;;;;;;1542928;75;740;-64
2021/04/05 04:24:35;;;;;;;;;;;22.80;32.30;;;;;;1546146;75;759;-64
2021/04/05 04:26:37;;;;;;;;;;;22.70;32.30;;;;;;1545954;75;1154;-64
2021/04/05 04:28:40;;;;;;;;;;;22.80;32.30;;;;;;1553299;75;761;-62
2021/04/05 04:30:42;;;;;;;;;;;22.80;32.30;;;;;;1545381;75;1800;-64
2021/04/05 04:32:44;;;;;;;;;;;22.80;32.30;;;;;;1541617;75;798;-63
2021/04/05 04:34:46;;;;;;;;;;;22.90;32.40;;;;;;1546012;75;1937;-63
2021/04/05 04:36:48;;;;;;;;;;;22.90;32.40;;;;;;1541419;76;1156;-63
2021/04/05 04:38:53;;;;;;;;;;;22.90;32.40;;;;;;1541059;77;756;-63
2021/04/05 04:40:55;;;;;;;;;;;22.90;32.40;;;;;;1545194;75;773;-63
2021/04/05 04:42:57;;;;;;;;;;;22.90;32.40;;;;;;1559713;75;775;-63
2021/04/05 04:44:59;;;;;;;;;;;22.90;32.40;;;;;;1539079;75;786;-63
2021/04/05 04:47:01;;;;;;;;;;;22.90;32.40;;;;;;1555981;75;1186;-63
2021/04/05 04:49:05;;;;;;;;;;;22.90;32.30;;;;;;1553060;75;754;-64
2021/04/05 04:51:08;;;;;;;;;;;22.90;32.30;;;;;;1544909;75;753;-68
2021/04/05 04:53:10;;;;;;;;;;;22.90;32.30;;;;;;1543001;75;960;-66
2021/04/05 04:55:12;;;;;;;;;;;22.90;32.30;;;;;;1548764;75;1943;-66
2021/04/05 04:57:14;;;;;;;;;;;22.90;32.30;;;;;;1553051;75;1149;-64
2021/04/05 04:59:16;;;;;;;;;;;22.90;32.30;;;;;;1541604;75;677;-62
2021/04/05 05:01:18;;;;;;;;;;;22.90;32.30;;;;;;1541417;75;738;-64
2021/04/05 05:03:20;;;;;;;;;;;22.90;32.40;;;;;;1545870;75;754;-64
2021/04/05 05:05:22;;;;;;;;;;;22.80;32.30;;;;;;1545606;76;756;-63
2021/04/05 05:07:24;;;;;;;;;;;22.90;32.40;;;;;;1546006;75;1243;-64
2021/04/05 05:09:26;;;;;;;;;;;22.90;32.40;;;;;;1548516;75;746;-64
2021/04/05 05:11:28;;;;;;;;;;;22.90;32.40;;;;;;1547934;75;721;-64
2021/04/05 05:13:30;;;;;;;;;;;22.90;32.40;;;;;;1548009;75;739;-66
2021/04/05 05:15:32;;;;;;;;;;;22.90;32.60;;;;;;1543906;75;1956;-64
2021/04/05 05:17:34;;;;;;;;;;;22.90;32.60;;;;;;1538790;75;1176;-65
2021/04/05 05:19:38;;;;;;;;;;;22.90;32.30;;;;;;1546622;75;798;-64
2021/04/05 05:21:41;;;;;;;;;;;22.90;32.30;;;;;;1542210;75;662;-63
2021/04/05 05:23:43;;;;;;;;;;;22.90;32.30;;;;;;1536339;76;806;-65
2021/04/05 05:25:45;;;;;;;;;;;23.00;32.20;;;;;;1545453;75;785;-63
2021/04/05 05:27:49;;;;;;;;;;;23.00;32.30;;;;;;1543094;75;1227;-61
2021/04/05 05:29:51;;;;;;;;;;;23.00;32.30;;;;;;1545614;75;1020;-62
2021/04/05 05:31:53;;;;;;;;;;;23.00;32.40;;;;;;1538222;75;787;-62
2021/04/05 05:33:55;;;;;;;;;;;23.10;32.50;;;;;;1541818;75;748;-64
2021/04/05 05:35:57;;;;;;;;;;;23.10;32.40;;;;;;1545952;75;1925;-62
2021/04/05 05:38:03;;;;;;;;;;;23.10;32.30;;;;;;1541477;75;1176;-62
2021/04/05 05:40:05;;;;;;;;;;;23.10;32.30;;;;;;1537693;75;733;-61
2021/04/05 05:42:24;;;;;;;;;;;23.10;32.30;;;;;;1553047;75;754;-63
2021/04/05 05:44:40;;;;;;;;;;;23.00;32.10;;;;;;1542697;75;741;-63
2021/04/05 05:46:55;;;;;;;;;;;23.10;32.40;;;;;;1544838;75;1262;-64
2021/04/05 05:49:02;;;;;;;;;;;23.10;32.30;;;;;;1552065;75;994;-64
2021/04/05 05:51:22;;;;;;;;;;;23.10;32.40;;;;;;1545112;75;1634;-65
2021/04/05 05:53:40;;;;;;;;;;;23.10;32.50;;;;;;1546840;75;738;-63
2021/04/05 05:55:44;;;;;;;;;;;23.10;32.50;;;;;;1545555;75;1944;-65
2021/04/05 05:57:47;;;;;;;;;;;23.10;32.50;;;;;;1543241;75;1576;-62
2021/04/05 05:59:53;;;;;;;;;;;23.10;32.50;;;;;;1539917;75;1172;-63
2021/04/05 06:02:13;;;;;;;;;;;23.10;32.50;;;;;;1538246;75;798;-64
2021/04/05 06:04:35;;;;;;;;;;;23.10;32.60;;;;;;1543731;75;690;-62
2021/04/05 06:06:50;;;;;;;;;;;23.10;32.50;;;;;;1545462;75;1251;-65
2021/04/05 06:08:54;;;;;;;;;;;23.10;32.50;;;;;;1554690;75;754;-64
2021/04/05 06:10:57;;;;;;;;;;;23.10;32.50;;;;;;1549637;75;1073;-63
2021/04/05 06:13:09;;;;;;;;;;;23.10;32.60;;;;;;1546569;76;729;-63
2021/04/05 06:15:27;;;;;;;;;;;23.10;32.50;;;;;;1539982;75;1937;-63
2021/04/05 06:17:31;;;;;;;;;;;23.10;32.40;;;;;;1543515;75;1182;-63
2021/04/05 06:19:43;;;;;;;;;;;23.10;32.50;;;;;;1546540;75;820;-63
2021/04/05 06:21:49;;;;;;;;;;;23.10;32.40;;;;;;1468668;80;1027;-62
2021/04/05 06:23:51;;;;;;;;;;;23.20;32.40;;;;;;1535170;75;1128;-62
2021/04/05 06:25:57;;;;;;;;;;;23.20;32.40;;;;;;1545271;75;800;-63
2021/04/05 06:28:10;;;;;;;;;;;23.20;32.50;;;;;;1547615;75;1292;-63
2021/04/05 06:30:13;;;;;;;;;;;23.20;32.50;;;;;;1545179;75;786;-65
2021/04/05 06:32:26;;;;;;;;;;;23.20;32.40;;;;;;1520868;75;1034;-61
2021/04/05 06:34:35;;;;;;;;;;;23.20;32.30;;;;;;1545912;75;791;-63
2021/04/05 06:36:51;;;;;;;;;;;23.10;32.40;;;;;;1537837;75;1941;-63
2021/04/05 06:38:57;;;;;;;;;;;23.20;32.80;;;;;;1542098;76;1760;-63
2021/04/05 06:41:01;;;;;;;;;;;23.20;32.70;;;;;;1534973;75;813;-62
2021/04/05 06:43:21;;;;;;;;;;;23.20;32.60;;;;;;1539026;75;746;-62
2021/04/05 06:45:28;;;;;;;;;;;23.20;32.60;;;;;;1540663;75;736;-63
2021/04/05 06:47:46;;;;;;;;;;;23.20;32.50;;;;;;1532364;75;1165;-63
2021/04/05 06:49:49;;;;;;;;;;;23.20;32.50;;;;;;1531488;75;768;-63
2021/04/05 06:51:56;;;;;;;;;;;23.20;32.40;;;;;;1539206;75;724;-64
2021/04/05 06:54:02;;;;;;;;;;;23.20;32.40;;;;;;1538489;75;765;-64
2021/04/05 06:56:08;;;;;;;;;;;23.30;32.50;;;;;;1546163;75;1941;-66
2021/04/05 06:58:11;;;;;;;;;;;23.30;32.80;;;;;;1545209;75;1164;-67
2021/04/05 07:00:16;;;;;;;;;;;23.30;32.50;;;;;;1550023;75;1642;-63
2021/04/05 07:02:19;;;;;;;;;;;23.30;32.40;;;;;;1544819;75;787;-66
2021/04/05 07:04:23;;;;;;;;;;;23.30;32.60;;;;;;1543322;76;1058;-68
2021/04/05 07:06:26;;;;;;;;;;;23.30;32.30;;;;;;1545425;75;1155;-67
2021/04/05 07:08:36;;;;;;;;;;;23.30;32.30;;;;;;1549249;75;739;-70
2021/04/05 07:10:47;;;;;;;;;;;23.20;31.90;;;;;;1542987;75;752;-67
2021/04/05 07:13:06;;;;;;;;;;;23.30;31.20;;;;;;1531066;75;795;-68
2021/04/05 07:15:23;;;;;;;;;;;23.30;31.30;;;;;;1540944;76;1536;-68
2021/04/05 07:17:30;;;;;;;;;;;23.30;31.00;;;;;;1536244;75;1925;-68
2021/04/05 07:19:45;;;;;;;;;;;23.20;30.10;;;;;;1537003;75;1635;-68
2021/04/05 07:21:48;;;;;;;;;;;23.30;29.80;;;;;;1530690;75;1032;-68
2021/04/05 07:23:52;;;;;;;;;;;23.30;29.20;;;;;;1531167;75;1760;-68
2021/04/05 07:26:02;;;;;;;;;;;23.30;28.40;;;;;;1529520;75;800;-67
2021/04/05 07:28:05;;;;;;;;;;;23.30;28.70;;;;;;1539270;74;2028;-68
2021/04/05 07:30:13;;;;;;;;;;;23.30;28.20;;;;;;1531493;75;1668;-68
2021/04/05 07:32:29;;;;;;;;;;;23.30;28.40;;;;;;1529505;75;822;-67
2021/04/05 07:34:49;;;;;;;;;;;23.20;27.70;;;;;;1542018;75;755;-68
2021/04/05 07:36:53;;;;;;;;;;;23.20;27.70;;;;;;1547404;74;1940;-68
2021/04/05 07:39:12;;;;;;;;;;;23.20;27.50;;;;;;1548467;75;753;-65
2021/04/05 07:41:16;;;;;;;;;;;23.10;27.60;;;;;;1538621;75;798;-69
2021/04/05 07:43:25;;;;;;;;;;;23.10;27.40;;;;;;1542804;75;1013;-68
2021/04/05 07:45:32;;;;;;;;;;;23.10;27.30;;;;;;1537518;75;765;-68
2021/04/05 07:47:47;;;;;;;;;;;23.00;27.30;;;;;;1546039;75;1158;-67
2021/04/05 07:49:51;;;;;;;;;;;23.00;27.50;;;;;;1559069;75;1073;-67
2021/04/05 07:51:57;;;;;;;;;;;23.00;27.60;;;;;;1553998;75;1603;-67
2021/04/05 07:54:01;;;;;;;;;;;23.00;27.80;;;;;;1542679;75;718;-66
2021/04/05 07:56:03;;;;;;;;;;;23.00;27.90;;;;;;1544423;75;1940;-67
2021/04/05 07:58:15;;;;;;;;;;;23.00;27.80;;;;;;1540620;76;1163;-65
2021/04/05 08:00:35;;;;;;;;;;;23.00;27.70;;;;;;1531380;75;1182;-63
2021/04/05 08:02:51;;;;;;;;;;;23.00;27.50;;;;;;1536854;75;637;-66
2021/04/05 08:04:57;;;;;;;;;;;23.10;27.80;;;;;;1544670;75;729;-67
2021/04/05 08:07:06;;;;;;;;;;;23.20;28.00;;;;;;1541694;75;1153;-66
2021/04/05 08:09:09;;;;;;;;;;;23.20;27.90;;;;;;1540774;75;801;-67
2021/04/05 08:11:29;;;;;;;;;;;23.40;27.70;;;;;;1546554;75;730;-67
2021/04/05 08:13:35;;;;;;;;;;;23.50;27.60;;;;;;1539964;75;803;-67
2021/04/05 08:15:38;;;;;;;;;;;23.50;27.40;;;;;;1539231;75;1716;-67
2021/04/05 08:17:41;;;;;;;;;;;23.50;27.10;;;;;;1545424;75;1949;-66
2021/04/05 08:20:03;;;;;;;;;;;23.50;27.00;;;;;;1537093;76;1569;-66
2021/04/05 08:22:06;;;;;;;;;;;23.50;27.00;;;;;;1539026;75;786;-67
2021/04/05 08:24:27;;;;;;;;;;;23.70;27.20;;;;;;1540909;75;2112;-65
2021/04/05 08:26:39;;;;;;;;;;;23.70;27.10;;;;;;1542185;75;1164;-67
2021/04/05 08:28:49;;;;;;;;;;;23.70;25.30;;;;;;1538169;75;669;-67
2021/04/05 08:31:09;;;;;;;;;;;23.60;22.50;;;;;;1541166;75;774;-68
2021/04/05 08:33:12;;;;;;;;;;;23.40;23.90;;;;;;1547694;75;753;-68
2021/04/05 08:35:21;;;;;;;;;;;23.50;23.90;;;;;;1542323;75;791;-67
2021/04/05 08:37:25;;;;;;;;;;;23.50;23.70;;;;;;1543372;75;1945;-64
2021/04/05 08:39:34;;;;;;;;;;;23.50;23.10;;;;;;1540162;75;768;-66
2021/04/05 08:41:40;;;;;;;;;;;23.50;23.60;;;;;;1539000;75;766;-68
2021/04/05 08:43:52;;;;;;;;;;;23.50;24.00;;;;;;1535105;75;1786;-68
2021/04/05 08:45:59;;;;;;;;;;;23.60;22.90;;;;;;1541689;75;758;-67
2021/04/05 08:48:05;;;;;;;;;;;23.50;22.50;;;;;;1540940;76;1158;-67
2021/04/05 08:50:10;;;;;;;;;;;23.40;22.90;;;;;;1543864;75;769;-67
2021/04/05 08:52:12;;;;;;;;;;;23.40;23.10;;;;;;1552906;75;791;-67
2021/04/05 08:54:18;;;;;;;;;;;23.40;22.40;;;;;;1541654;75;727;-66
2021/04/05 08:56:20;;;;;;;;;;;23.30;22.30;;;;;;1542047;75;1955;-66
2021/04/05 08:58:33;;;;;;;;;;;23.30;22.10;;;;;;1537473;75;1179;-66
2021/04/05 09:00:39;;;;;;;;;;;23.20;21.10;;;;;;1545139;75;693;-67
2021/04/05 09:02:53;;;;;;;;;;;23.20;21.90;;;;;;1546304;75;756;-68
2021/04/05 09:04:54;;;;;;;;;;;23.20;21.80;;;;;;1545225;76;1662;-67
2021/04/05 09:06:58;;;;;;;;;;;23.10;21.70;;;;;;1545439;75;1238;-67
2021/04/05 09:09:00;;;;;;;;;;;23.10;21.90;;;;;;1545881;75;706;-67
2021/04/05 09:11:02;;;;;;;;;;;23.10;21.40;;;;;;1545872;76;791;-67
2021/04/05 09:13:07;;;;;;;;;;;23.00;22.00;;;;;;1546107;75;735;-66
2021/04/05 09:15:10;;;;;;;;;;;23.00;21.90;;;;;;1549544;75;1657;-67
2021/04/05 09:17:33;;;;;;;;;;;23.00;22.10;;;;;;1545705;75;1943;-67
2021/04/05 09:19:48;;;;;;;;;;;23.00;21.70;;;;;;1543189;75;819;-67
2021/04/05 09:21:52;;;;;;;;;;;23.00;21.50;;;;;;1540080;75;793;-65
2021/04/05 09:24:12;;;;;;;;;;;23.00;21.30;;;;;;1536925;75;769;-66
2021/04/05 09:26:24;;;;;;;;;;;22.80;21.10;;;;;;1549095;75;791;-67
2021/04/05 09:28:37;;;;;;;;;;;22.70;21.20;;;;;;1545920;75;1234;-67
2021/04/05 09:30:46;;;;;;;;;;;22.70;21.50;;;;;;1544463;75;678;-66
2021/04/05 09:32:50;;;;;;;;;;;22.80;21.80;;;;;;1545498;75;805;-67
2021/04/05 09:35:02;;;;;;;;;;;22.80;21.60;;;;;;1536416;75;1375;-67
2021/04/05 09:37:06;;;;;;;;;;;22.70;21.30;;;;;;1539456;77;1937;-66
2021/04/05 09:39:09;;;;;;;;;;;22.60;21.00;;;;;;1536570;75;725;-65
2021/04/05 09:41:29;;;;;;;;;;;22.60;21.70;;;;;;1543084;75;759;-67
2021/04/05 09:43:41;;;;;;;;;;;22.50;21.40;;;;;;1546329;75;736;-64
2021/04/05 09:45:43;;;;;;;;;;;22.50;22.20;;;;;;1545552;75;735;-66
2021/04/05 09:48:03;;;;;;;;;;;22.50;22.10;;;;;;1545712;75;1155;-66
2021/04/05 09:50:25;;;;;;;;;;;22.50;21.50;;;;;;1542798;75;800;-65
2021/04/05 09:52:28;;;;;;;;;;;22.50;21.10;;;;;;1536415;75;732;-64
2021/04/05 09:54:38;;;;;;;;;;;22.40;22.10;;;;;;1536168;75;1006;-65
2021/04/05 09:56:43;;;;;;;;;;;22.30;21.40;;;;;;1539436;75;1943;-66
2021/04/05 09:58:47;;;;;;;;;;;22.40;22.00;;;;;;1600011;72;3089;-62
2021/04/05 10:00:53;;;;;;;;;;;22.40;21.90;;;;;;1621348;73;767;-64
2021/04/05 10:02:55;;;;;;;;;;;22.40;22.40;;;;;;1624017;71;997;-64
2021/04/05 10:04:57;;;;;;;;;;;22.60;22.50;;;;;;1618908;73;787;-63
2021/04/05 10:06:59;;;;;;;;;;;22.60;22.20;;;;;;1622070;73;796;-66
2021/04/05 10:09:01;;;;;;;;;;;22.70;22.50;;;;;;1603456;73;1281;-63
2021/04/05 10:11:03;;;;;;;;;;;22.90;22.60;;;;;;1591345;73;826;-62
2021/04/05 10:13:05;;;;;;;;;;;22.90;22.60;;;;;;1590013;73;753;-62
2021/04/05 10:15:07;;;;;;;;;;;23.00;22.60;;;;;;1587839;73;772;-63
2021/04/05 10:17:09;;;;;;;;;;;23.00;22.50;;;;;;1581262;73;1949;-62
2021/04/05 10:19:12;;;;;;;;;;;23.00;22.70;;;;;;1602757;73;1140;-62
2021/04/05 10:21:14;;;;;;;;;;;23.00;22.90;;;;;;1597790;73;783;-64
2021/04/05 10:23:17;;;;;;;;;;;23.10;23.00;;;;;;1599047;73;769;-61
2021/04/05 10:25:22;;;;;;;;;;;23.10;23.20;;;;;;1602463;73;741;-63
2021/04/05 10:27:27;;;;;;;;;;;23.10;23.60;;;;;;1601088;73;1173;-64
2021/04/05 10:29:30;;;;;;;;;;;23.20;23.90;;;;;;1594567;73;820;-63
2021/04/05 10:31:32;;;;;;;;;;;23.20;23.90;;;;;;1601940;73;755;-63
2021/04/05 10:33:35;;;;;;;;;;;23.20;22.50;;;;;;1599000;73;749;-63
2021/04/05 10:35:38;;;;;;;;;;;23.20;22.50;;;;;;1603228;73;764;-64
2021/04/05 10:37:41;;;;;;;;;;;23.10;22.10;;;;;;1602736;73;1948;-62
2021/04/05 10:39:46;;;;;;;;;;;22.90;22.20;;;;;;1600662;73;1018;-63
2021/04/05 10:41:50;;;;;;;;;;;22.90;22.10;;;;;;1600994;73;763;-61
2021/04/05 10:43:56;;;;;;;;;;;22.70;21.80;;;;;;1591717;73;1840;-62
2021/04/05 10:46:06;;;;;;;;;;;22.70;21.60;;;;;;1602449;73;815;-66
2021/04/05 10:48:07;;;;;;;;;;;22.70;21.60;;;;;;1601139;73;1144;-63
2021/04/05 10:50:09;;;;;;;;;;;22.80;21.50;;;;;;1600052;73;715;-63
2021/04/05 10:52:11;;;;;;;;;;;22.80;21.80;;;;;;1598919;73;796;-64
2021/04/05 10:54:17;;;;;;;;;;;22.80;22.30;;;;;;1596335;73;791;-64
2021/04/05 10:56:19;;;;;;;;;;;22.80;22.70;;;;;;1590499;73;1135;-64
2021/04/05 10:58:23;;;;;;;;;;;22.90;23.20;;;;;;1581818;73;1934;-64
2021/04/05 11:00:28;;;;;;;;;;;22.90;23.40;;;;;;1599518;73;692;-63
2021/04/05 11:02:32;;;;;;;;;;;22.90;23.60;;;;;;1599565;73;773;-65
2021/04/05 11:04:34;;;;;;;;;;;23.00;23.60;;;;;;1599148;73;1008;-64
2021/04/05 11:06:35;;;;;;;;;;;23.00;23.80;;;;;;1602174;73;801;-65
2021/04/05 11:08:37;;;;;;;;;;;23.00;23.90;;;;;;1601964;73;1163;-64
2021/04/05 11:10:39;;;;;;;;;;;23.00;24.10;;;;;;1596442;73;741;-64
2021/04/05 11:12:41;;;;;;;;;;;23.00;24.20;;;;;;1598266;73;750;-65
2021/04/05 11:14:43;;;;;;;;;;;23.10;24.40;;;;;;1597243;73;755;-64
2021/04/05 11:16:55;;;;;;;;;;;23.10;24.60;;;;;;1601586;73;1930;-65
2021/04/05 11:18:59;;;;;;;;;;;23.10;24.60;;;;;;1570227;74;1158;-64
2021/04/05 11:21:01;;;;;;;;;;;23.10;24.70;;;;;;1601573;73;755;-64
2021/04/05 11:23:04;;;;;;;;;;;23.10;24.80;;;;;;1601206;73;755;-65
2021/04/05 11:25:06;;;;;;;;;;;23.10;25.00;;;;;;1598981;73;748;-64
2021/04/05 11:27:10;;;;;;;;;;;23.10;25.00;;;;;;1599212;73;793;-65
2021/04/05 11:29:14;;;;;;;;;;;23.20;25.00;;;;;;1601207;73;1165;-64
2021/04/05 11:31:15;;;;;;;;;;;23.20;25.00;;;;;;1598828;73;766;-62
2021/04/05 11:33:19;;;;;;;;;;;23.10;25.10;;;;;;1602147;73;762;-64
2021/04/05 11:35:21;;;;;;;;;;;23.10;25.10;;;;;;1592625;73;1908;-64
2021/04/05 11:37:25;;;;;;;;;;;23.10;25.10;;;;;;1601199;73;1929;-64
2021/04/05 11:39:28;;;;;;;;;;;23.20;25.20;;;;;;1599612;73;1663;-65
2021/04/05 11:41:30;;;;;;;;;;;23.20;25.20;;;;;;1601418;73;826;-63
2021/04/05 11:43:33;;;;;;;;;;;23.20;25.20;;;;;;1599429;73;711;-64
2021/04/05 11:45:36;;;;;;;;;;;23.20;25.30;;;;;;1599277;73;750;-65
2021/04/05 11:47:39;;;;;;;;;;;23.20;25.30;;;;;;1598067;73;1562;-64
2021/04/05 11:49:41;;;;;;;;;;;23.20;25.40;;;;;;1602883;73;743;-64
2021/04/05 11:51:45;;;;;;;;;;;23.20;25.40;;;;;;1579578;74;743;-64
2021/04/05 11:53:51;;;;;;;;;;;23.20;25.50;;;;;;1582853;74;771;-64
2021/04/05 11:56:07;;;;;;;;;;;23.20;25.50;;;;;;1584548;74;1564;-66
2021/04/05 11:58:11;;;;;;;;;;;23.20;25.50;;;;;;1483610;76;1939;-64
2021/04/05 12:00:13;;;;;;;;;;;23.20;25.50;;;;;;1554409;75;1516;-64
2021/04/05 12:02:18;;;;;;;;;;;23.20;25.50;;;;;;1554284;76;787;-64
2021/04/05 12:04:21;;;;;;;;;;;23.30;25.70;;;;;;1600058;73;1154;-65
2021/04/05 12:06:24;;;;;;;;;;;23.20;25.70;;;;;;1600305;73;760;-64
2021/04/05 12:08:28;;;;;;;;;;;23.20;25.60;;;;;;1601037;73;1294;-64
2021/04/05 12:10:29;;;;;;;;;;;23.20;25.60;;;;;;1599071;73;932;-64
2021/04/05 12:12:36;;;;;;;;;;;23.20;25.60;;;;;;1600767;73;747;-64
2021/04/05 12:14:38;;;;;;;;;;;23.30;25.60;;;;;;1598141;73;1640;-64
2021/04/05 12:16:40;;;;;;;;;;;23.30;25.70;;;;;;1599226;73;728;-64
2021/04/05 12:18:42;;;;;;;;;;;23.30;25.70;;;;;;1592178;73;1938;-64
2021/04/05 12:20:44;;;;;;;;;;;23.40;25.60;;;;;;1601048;73;746;-64
2021/04/05 12:22:46;;;;;;;;;;;23.40;25.60;;;;;;1601167;73;790;-64
2021/04/05 12:24:50;;;;;;;;;;;23.40;25.60;;;;;;1601236;73;771;-64
2021/04/05 12:26:53;;;;;;;;;;;23.40;25.60;;;;;;1594291;73;728;-64